sensor_id;sensor_type;location;lat;lon;timestamp;temperature;humidity
48162;DHT22;33950;48.154;16.316;2023-04-16T00:00:13;8.40;99.90
48162;DHT22;33950;48.154;16.316;2023-04-16T00:02:59;8.50;99.90
48162;DHT22;33950;48.154;16.316;2023-04-16T00:05:45;8.50;99.90
48162;DHT22;33950;48.154;16.316;2023-04-16T00:08:31;8.60;99.90
48162;DHT22;33950;48.154;16.316;2023-04-16T00:11:17;8.60;99.90
48162;DHT22;33950;48.154;16.316;2023-04-16T00:14:04;8.70;99.90
48162;DHT22;33950;48.154;16.316;2023-04-16T00:16:51;8.70;99.90
48162;DHT22;33950;48.154;16.316;2023-04-16T00:19:37;8.70;99.90
48162;DHT22;33950;48.154;16.316;2023-04-16T00:22:23;8.70;99.90
48162;DHT22;33950;48.154;16.316;2023-04-16T00:25:09;8.70;99.90
48162;DHT22;33950;48.154;16.316;2023-04-16T00:27:55;8.60;99.90
48162;DHT22;33950;48.154;16.316;2023-04-16T00:30:41;8.60;99.90
48162;DHT22;33950;48.154;16.316;2023-04-16T00:33:29;8.50;99.90
48162;DHT22;33950;48.154;16.316;2023-04-16T00:36:15;8.30;99.90
48162;DHT22;33950;48.154;16.316;2023-04-16T00:39:01;8.10;99.90
48162;DHT22;33950;48.154;16.316;2023-04-16T00:41:47;7.90;99.90
48162;DHT22;33950;48.154;16.316;2023-04-16T00:44:34;7.80;99.90
48162;DHT22;33950;48.154;16.316;2023-04-16T00:47:20;7.60;99.90
48162;DHT22;33950;48.154;16.316;2023-04-16T00:50:09;7.50;99.90
48162;DHT22;33950;48.154;16.316;2023-04-16T00:52:56;7.50;99.90
48162;DHT22;33950;48.154;16.316;2023-04-16T00:55:42;7.50;99.90
48162;DHT22;33950;48.154;16.316;2023-04-16T00:58:29;7.40;99.90
48162;DHT22;33950;48.154;16.316;2023-04-16T01:01:15;7.40;99.90
48162;DHT22;33950;48.154;16.316;2023-04-16T01:04:01;7.40;99.90
48162;DHT22;33950;48.154;16.316;2023-04-16T01:06:49;7.40;99.90
48162;DHT22;33950;48.154;16.316;2023-04-16T01:09:35;7.30;99.90
48162;DHT22;33950;48.154;16.316;2023-04-16T01:12:22;7.30;99.90
48162;DHT22;33950;48.154;16.316;2023-04-16T01:15:08;7.30;99.90
48162;DHT22;33950;48.154;16.316;2023-04-16T01:17:56;7.40;99.90
48162;DHT22;33950;48.154;16.316;2023-04-16T01:20:43;7.50;99.90
48162;DHT22;33950;48.154;16.316;2023-04-16T01:23:29;7.60;99.90
48162;DHT22;33950;48.154;16.316;2023-04-16T01:26:16;7.80;99.90
48162;DHT22;33950;48.154;16.316;2023-04-16T01:29:02;8.00;99.90
48162;DHT22;33950;48.154;16.316;2023-04-16T01:31:48;8.10;99.90
48162;DHT22;33950;48.154;16.316;2023-04-16T01:34:34;8.20;99.90
48162;DHT22;33950;48.154;16.316;2023-04-16T01:37:22;8.30;99.90
48162;DHT22;33950;48.154;16.316;2023-04-16T01:40:08;8.30;99.90
48162;DHT22;33950;48.154;16.316;2023-04-16T01:42:55;8.30;99.90
48162;DHT22;33950;48.154;16.316;2023-04-16T01:45:41;8.30;99.90
48162;DHT22;33950;48.154;16.316;2023-04-16T01:48:27;8.20;99.90
48162;DHT22;33950;48.154;16.316;2023-04-16T01:51:13;8.30;99.90
48162;DHT22;33950;48.154;16.316;2023-04-16T01:54:01;8.30;99.90
48162;DHT22;33950;48.154;16.316;2023-04-16T01:56:47;8.30;99.90
48162;DHT22;33950;48.154;16.316;2023-04-16T01:59:33;8.30;99.90
48162;DHT22;33950;48.154;16.316;2023-04-16T02:02:19;8.20;99.90
48162;DHT22;33950;48.154;16.316;2023-04-16T02:05:06;8.20;99.90
48162;DHT22;33950;48.154;16.316;2023-04-16T02:07:52;8.20;99.90
48162;DHT22;33950;48.154;16.316;2023-04-16T02:10:39;8.20;99.90
48162;DHT22;33950;48.154;16.316;2023-04-16T02:13:25;8.20;99.90
48162;DHT22;33950;48.154;16.316;2023-04-16T02:16:12;8.20;99.90
48162;DHT22;33950;48.154;16.316;2023-04-16T02:18:58;8.20;99.90
48162;DHT22;33950;48.154;16.316;2023-04-16T02:21:44;8.10;99.90
48162;DHT22;33950;48.154;16.316;2023-04-16T02:24:30;8.20;99.90
48162;DHT22;33950;48.154;16.316;2023-04-16T02:27:18;8.10;99.90
48162;DHT22;33950;48.154;16.316;2023-04-16T02:30:04;8.10;99.90
48162;DHT22;33950;48.154;16.316;2023-04-16T02:32:51;8.10;99.90
48162;DHT22;33950;48.154;16.316;2023-04-16T02:35:37;8.00;99.90
48162;DHT22;33950;48.154;16.316;2023-04-16T02:38:23;8.00;99.90
48162;DHT22;33950;48.154;16.316;2023-04-16T02:41:09;8.00;99.90
48162;DHT22;33950;48.154;16.316;2023-04-16T02:43:57;8.00;99.90
48162;DHT22;33950;48.154;16.316;2023-04-16T02:46:43;8.00;99.90
48162;DHT22;33950;48.154;16.316;2023-04-16T02:49:29;7.70;99.90
48162;DHT22;33950;48.154;16.316;2023-04-16T02:52:15;7.70;99.90
48162;DHT22;33950;48.154;16.316;2023-04-16T02:55:02;7.70;99.90
48162;DHT22;33950;48.154;16.316;2023-04-16T02:57:48;7.70;99.90
48162;DHT22;33950;48.154;16.316;2023-04-16T03:00:37;7.80;99.90
48162;DHT22;33950;48.154;16.316;2023-04-16T03:03:23;7.80;99.90
48162;DHT22;33950;48.154;16.316;2023-04-16T03:06:09;7.80;99.90
48162;DHT22;33950;48.154;16.316;2023-04-16T03:08:55;7.80;99.90
48162;DHT22;33950;48.154;16.316;2023-04-16T03:11:42;7.80;99.90
48162;DHT22;33950;48.154;16.316;2023-04-16T03:14:28;7.90;99.90
48162;DHT22;33950;48.154;16.316;2023-04-16T03:17:15;8.00;99.90
48162;DHT22;33950;48.154;16.316;2023-04-16T03:20:02;8.00;99.90
48162;DHT22;33950;48.154;16.316;2023-04-16T03:22:50;8.00;99.90
48162;DHT22;33950;48.154;16.316;2023-04-16T03:25:37;8.00;99.90
48162;DHT22;33950;48.154;16.316;2023-04-16T03:28:25;8.00;99.90
48162;DHT22;33950;48.154;16.316;2023-04-16T03:31:11;8.00;99.90
48162;DHT22;33950;48.154;16.316;2023-04-16T03:33:59;7.90;99.90
48162;DHT22;33950;48.154;16.316;2023-04-16T03:36:45;7.80;99.90
48162;DHT22;33950;48.154;16.316;2023-04-16T03:39:31;7.80;99.90
48162;DHT22;33950;48.154;16.316;2023-04-16T03:42:18;7.80;99.90
48162;DHT22;33950;48.154;16.316;2023-04-16T03:45:05;7.90;99.90
48162;DHT22;33950;48.154;16.316;2023-04-16T03:47:51;7.90;99.90
48162;DHT22;33950;48.154;16.316;2023-04-16T03:50:38;8.00;99.90
48162;DHT22;33950;48.154;16.316;2023-04-16T03:53:24;8.00;99.90
48162;DHT22;33950;48.154;16.316;2023-04-16T03:56:11;8.00;99.90
48162;DHT22;33950;48.154;16.316;2023-04-16T03:58:57;8.00;99.90
48162;DHT22;33950;48.154;16.316;2023-04-16T04:01:43;8.00;99.90
48162;DHT22;33950;48.154;16.316;2023-04-16T04:04:29;8.00;99.90
48162;DHT22;33950;48.154;16.316;2023-04-16T04:07:16;8.00;99.90
48162;DHT22;33950;48.154;16.316;2023-04-16T04:10:03;8.00;99.90
48162;DHT22;33950;48.154;16.316;2023-04-16T04:12:49;8.10;99.90
48162;DHT22;33950;48.154;16.316;2023-04-16T04:15:35;8.10;99.90
48162;DHT22;33950;48.154;16.316;2023-04-16T04:18:21;8.20;99.90
48162;DHT22;33950;48.154;16.316;2023-04-16T04:21:08;8.20;99.90
48162;DHT22;33950;48.154;16.316;2023-04-16T04:23:55;8.20;99.90
48162;DHT22;33950;48.154;16.316;2023-04-16T04:26:41;8.20;99.90
48162;DHT22;33950;48.154;16.316;2023-04-16T04:29:28;8.30;99.90
48162;DHT22;33950;48.154;16.316;2023-04-16T04:32:14;8.30;99.90
48162;DHT22;33950;48.154;16.316;2023-04-16T04:35:01;8.30;99.90
48162;DHT22;33950;48.154;16.316;2023-04-16T04:37:48;8.40;99.90
48162;DHT22;33950;48.154;16.316;2023-04-16T04:40:35;8.40;99.90
48162;DHT22;33950;48.154;16.316;2023-04-16T04:43:21;8.40;99.90
48162;DHT22;33950;48.154;16.316;2023-04-16T04:46:07;8.40;99.90
48162;DHT22;33950;48.154;16.316;2023-04-16T04:48:53;8.40;99.90
48162;DHT22;33950;48.154;16.316;2023-04-16T04:51:39;8.40;99.90
48162;DHT22;33950;48.154;16.316;2023-04-16T04:54:26;8.40;99.90
48162;DHT22;33950;48.154;16.316;2023-04-16T04:57:14;8.40;99.90
48162;DHT22;33950;48.154;16.316;2023-04-16T05:00:00;8.40;99.90
48162;DHT22;33950;48.154;16.316;2023-04-16T05:02:48;8.30;99.90
48162;DHT22;33950;48.154;16.316;2023-04-16T05:05:35;8.30;99.90
48162;DHT22;33950;48.154;16.316;2023-04-16T05:08:21;8.30;99.90
48162;DHT22;33950;48.154;16.316;2023-04-16T05:11:07;8.30;99.90
48162;DHT22;33950;48.154;16.316;2023-04-16T05:13:55;8.40;99.90
48162;DHT22;33950;48.154;16.316;2023-04-16T05:16:41;8.40;99.90
48162;DHT22;33950;48.154;16.316;2023-04-16T05:19:27;8.40;99.90
48162;DHT22;33950;48.154;16.316;2023-04-16T05:22:13;8.40;99.90
48162;DHT22;33950;48.154;16.316;2023-04-16T05:25:04;8.40;99.90
48162;DHT22;33950;48.154;16.316;2023-04-16T05:27:53;8.40;99.90
48162;DHT22;33950;48.154;16.316;2023-04-16T05:30:40;8.40;99.90
48162;DHT22;33950;48.154;16.316;2023-04-16T05:33:26;8.40;99.90
48162;DHT22;33950;48.154;16.316;2023-04-16T05:36:12;8.40;99.90
48162;DHT22;33950;48.154;16.316;2023-04-16T05:38:58;8.40;99.90
48162;DHT22;33950;48.154;16.316;2023-04-16T05:41:44;8.40;99.90
48162;DHT22;33950;48.154;16.316;2023-04-16T05:44:31;8.40;99.90
48162;DHT22;33950;48.154;16.316;2023-04-16T05:47:18;8.60;99.90
48162;DHT22;33950;48.154;16.316;2023-04-16T05:50:05;8.70;99.90
48162;DHT22;33950;48.154;16.316;2023-04-16T05:52:51;8.90;99.90
48162;DHT22;33950;48.154;16.316;2023-04-16T05:55:37;9.00;99.90
48162;DHT22;33950;48.154;16.316;2023-04-16T05:58:23;9.10;99.90
48162;DHT22;33950;48.154;16.316;2023-04-16T06:01:10;9.10;99.90
48162;DHT22;33950;48.154;16.316;2023-04-16T06:03:57;9.20;99.90
48162;DHT22;33950;48.154;16.316;2023-04-16T06:06:43;9.30;99.90
48162;DHT22;33950;48.154;16.316;2023-04-16T06:09:29;9.30;99.90
48162;DHT22;33950;48.154;16.316;2023-04-16T06:12:15;9.30;99.90
48162;DHT22;33950;48.154;16.316;2023-04-16T06:15:01;9.40;99.90
48162;DHT22;33950;48.154;16.316;2023-04-16T06:17:48;9.50;99.90
48162;DHT22;33950;48.154;16.316;2023-04-16T06:20:37;9.50;99.90
48162;DHT22;33950;48.154;16.316;2023-04-16T06:23:23;9.60;99.90
48162;DHT22;33950;48.154;16.316;2023-04-16T06:26:10;9.70;99.90
48162;DHT22;33950;48.154;16.316;2023-04-16T06:28:56;9.70;99.90
48162;DHT22;33950;48.154;16.316;2023-04-16T06:31:42;9.80;99.90
48162;DHT22;33950;48.154;16.316;2023-04-16T06:34:28;9.80;99.90
48162;DHT22;33950;48.154;16.316;2023-04-16T06:37:15;10.00;99.90
48162;DHT22;33950;48.154;16.316;2023-04-16T06:40:02;10.00;99.90
48162;DHT22;33950;48.154;16.316;2023-04-16T06:42:48;10.00;99.90
48162;DHT22;33950;48.154;16.316;2023-04-16T06:45:34;10.00;99.90
48162;DHT22;33950;48.154;16.316;2023-04-16T06:48:20;10.00;99.90
48162;DHT22;33950;48.154;16.316;2023-04-16T06:51:06;10.10;99.90
48162;DHT22;33950;48.154;16.316;2023-04-16T06:53:54;10.10;99.90
48162;DHT22;33950;48.154;16.316;2023-04-16T06:56:40;10.10;99.90
48162;DHT22;33950;48.154;16.316;2023-04-16T06:59:26;9.90;99.90
48162;DHT22;33950;48.154;16.316;2023-04-16T07:02:12;10.00;99.90
48162;DHT22;33950;48.154;16.316;2023-04-16T07:04:58;10.00;99.90
48162;DHT22;33950;48.154;16.316;2023-04-16T07:07:44;10.10;99.90
48162;DHT22;33950;48.154;16.316;2023-04-16T07:10:32;10.00;99.90
48162;DHT22;33950;48.154;16.316;2023-04-16T07:13:18;9.90;99.90
48162;DHT22;33950;48.154;16.316;2023-04-16T07:16:04;9.80;99.90
48162;DHT22;33950;48.154;16.316;2023-04-16T07:18:50;9.90;99.90
48162;DHT22;33950;48.154;16.316;2023-04-16T07:21:36;10.10;99.90
48162;DHT22;33950;48.154;16.316;2023-04-16T07:24:23;10.20;99.90
48162;DHT22;33950;48.154;16.316;2023-04-16T07:27:10;10.20;99.90
48162;DHT22;33950;48.154;16.316;2023-04-16T07:29:56;10.30;99.90
48162;DHT22;33950;48.154;16.316;2023-04-16T07:32:42;10.20;99.90
48162;DHT22;33950;48.154;16.316;2023-04-16T07:35:28;10.00;99.90
48162;DHT22;33950;48.154;16.316;2023-04-16T07:38:14;9.80;99.90
48162;DHT22;33950;48.154;16.316;2023-04-16T07:41:01;10.00;99.90
48162;DHT22;33950;48.154;16.316;2023-04-16T07:43:48;10.20;99.90
48162;DHT22;33950;48.154;16.316;2023-04-16T07:46:35;10.30;99.90
48162;DHT22;33950;48.154;16.316;2023-04-16T07:49:21;10.40;99.90
48162;DHT22;33950;48.154;16.316;2023-04-16T07:52:07;10.40;99.90
48162;DHT22;33950;48.154;16.316;2023-04-16T07:54:53;10.60;99.90
48162;DHT22;33950;48.154;16.316;2023-04-16T07:57:39;10.60;99.90
48162;DHT22;33950;48.154;16.316;2023-04-16T08:00:27;10.40;99.90
48162;DHT22;33950;48.154;16.316;2023-04-16T08:03:13;10.50;99.90
48162;DHT22;33950;48.154;16.316;2023-04-16T08:06:00;10.60;99.90
48162;DHT22;33950;48.154;16.316;2023-04-16T08:08:46;10.60;99.90
48162;DHT22;33950;48.154;16.316;2023-04-16T08:11:33;10.80;99.90
48162;DHT22;33950;48.154;16.316;2023-04-16T08:14:19;10.90;99.90
48162;DHT22;33950;48.154;16.316;2023-04-16T08:17:06;11.00;99.50
48162;DHT22;33950;48.154;16.316;2023-04-16T08:19:53;11.10;99.10
48162;DHT22;33950;48.154;16.316;2023-04-16T08:22:39;11.10;98.60
48162;DHT22;33950;48.154;16.316;2023-04-16T08:25:27;11.20;98.60
48162;DHT22;33950;48.154;16.316;2023-04-16T08:28:14;11.10;97.90
48162;DHT22;33950;48.154;16.316;2023-04-16T08:31:00;10.80;98.10
48162;DHT22;33950;48.154;16.316;2023-04-16T08:33:48;10.80;98.10
48162;DHT22;33950;48.154;16.316;2023-04-16T08:36:34;10.80;98.00
48162;DHT22;33950;48.154;16.316;2023-04-16T08:39:20;11.00;97.80
48162;DHT22;33950;48.154;16.316;2023-04-16T08:42:12;11.20;97.40
48162;DHT22;33950;48.154;16.316;2023-04-16T08:45:05;11.30;97.20
48162;DHT22;33950;48.154;16.316;2023-04-16T08:47:52;11.50;97.00
48162;DHT22;33950;48.154;16.316;2023-04-16T08:50:40;11.60;96.50
48162;DHT22;33950;48.154;16.316;2023-04-16T08:53:34;11.60;96.30
48162;DHT22;33950;48.154;16.316;2023-04-16T08:56:22;11.70;96.00
48162;DHT22;33950;48.154;16.316;2023-04-16T08:59:09;11.60;95.60
48162;DHT22;33950;48.154;16.316;2023-04-16T09:01:57;11.70;95.40
48162;DHT22;33950;48.154;16.316;2023-04-16T09:04:44;11.80;95.20
48162;DHT22;33950;48.154;16.316;2023-04-16T09:07:33;11.90;95.20
48162;DHT22;33950;48.154;16.316;2023-04-16T09:10:19;11.80;94.40
48162;DHT22;33950;48.154;16.316;2023-04-16T09:13:06;11.70;95.30
48162;DHT22;33950;48.154;16.316;2023-04-16T09:15:54;11.90;95.40
48162;DHT22;33950;48.154;16.316;2023-04-16T09:18:41;11.90;95.30
48162;DHT22;33950;48.154;16.316;2023-04-16T09:21:28;11.90;94.60
48162;DHT22;33950;48.154;16.316;2023-04-16T09:24:16;11.80;93.90
48162;DHT22;33950;48.154;16.316;2023-04-16T09:27:02;11.80;94.10
48162;DHT22;33950;48.154;16.316;2023-04-16T09:29:49;11.90;94.50
48162;DHT22;33950;48.154;16.316;2023-04-16T09:32:35;11.90;94.40
48162;DHT22;33950;48.154;16.316;2023-04-16T09:35:21;12.00;94.80
48162;DHT22;33950;48.154;16.316;2023-04-16T09:38:07;11.90;94.70
48162;DHT22;33950;48.154;16.316;2023-04-16T09:41:06;11.90;94.90
48162;DHT22;33950;48.154;16.316;2023-04-16T09:43:55;11.80;95.00
48162;DHT22;33950;48.154;16.316;2023-04-16T09:46:42;11.60;95.10
48162;DHT22;33950;48.154;16.316;2023-04-16T09:49:33;11.60;95.50
48162;DHT22;33950;48.154;16.316;2023-04-16T09:52:21;11.70;95.60
48162;DHT22;33950;48.154;16.316;2023-04-16T09:55:07;11.90;95.70
48162;DHT22;33950;48.154;16.316;2023-04-16T09:57:59;12.10;95.40
48162;DHT22;33950;48.154;16.316;2023-04-16T10:00:45;12.20;95.10
48162;DHT22;33950;48.154;16.316;2023-04-16T10:03:33;12.30;95.10
48162;DHT22;33950;48.154;16.316;2023-04-16T10:06:21;12.40;94.00
48162;DHT22;33950;48.154;16.316;2023-04-16T10:09:08;12.20;93.80
48162;DHT22;33950;48.154;16.316;2023-04-16T10:11:55;12.10;94.00
48162;DHT22;33950;48.154;16.316;2023-04-16T10:14:43;12.20;93.40
48162;DHT22;33950;48.154;16.316;2023-04-16T10:17:29;12.10;93.50
48162;DHT22;33950;48.154;16.316;2023-04-16T10:20:17;12.10;92.80
48162;DHT22;33950;48.154;16.316;2023-04-16T10:23:03;11.90;92.60
48162;DHT22;33950;48.154;16.316;2023-04-16T10:25:51;12.10;93.00
48162;DHT22;33950;48.154;16.316;2023-04-16T10:28:39;12.20;93.20
48162;DHT22;33950;48.154;16.316;2023-04-16T10:31:28;12.20;93.20
48162;DHT22;33950;48.154;16.316;2023-04-16T10:34:14;12.30;92.80
48162;DHT22;33950;48.154;16.316;2023-04-16T10:37:01;12.30;92.90
48162;DHT22;33950;48.154;16.316;2023-04-16T10:39:47;12.30;92.90
48162;DHT22;33950;48.154;16.316;2023-04-16T10:42:37;12.50;93.00
48162;DHT22;33950;48.154;16.316;2023-04-16T10:45:29;12.60;92.60
48162;DHT22;33950;48.154;16.316;2023-04-16T10:48:19;12.80;93.00
48162;DHT22;33950;48.154;16.316;2023-04-16T10:51:05;13.30;92.00
48162;DHT22;33950;48.154;16.316;2023-04-16T10:53:53;13.40;91.50
48162;DHT22;33950;48.154;16.316;2023-04-16T10:56:39;13.60;91.70
48162;DHT22;33950;48.154;16.316;2023-04-16T10:59:30;13.80;91.60
48162;DHT22;33950;48.154;16.316;2023-04-16T11:02:17;13.90;91.80
48162;DHT22;33950;48.154;16.316;2023-04-16T11:05:05;14.00;91.40
48162;DHT22;33950;48.154;16.316;2023-04-16T11:07:52;14.10;91.40
48162;DHT22;33950;48.154;16.316;2023-04-16T11:10:38;14.00;91.30
48162;DHT22;33950;48.154;16.316;2023-04-16T11:13:25;13.80;91.30
48162;DHT22;33950;48.154;16.316;2023-04-16T11:16:12;13.60;91.40
48162;DHT22;33950;48.154;16.316;2023-04-16T11:18:58;13.50;91.30
48162;DHT22;33950;48.154;16.316;2023-04-16T11:21:46;13.40;91.80
48162;DHT22;33950;48.154;16.316;2023-04-16T11:24:32;13.10;91.50
48162;DHT22;33950;48.154;16.316;2023-04-16T11:27:21;13.10;91.80
48162;DHT22;33950;48.154;16.316;2023-04-16T11:30:08;13.20;91.50
48162;DHT22;33950;48.154;16.316;2023-04-16T11:32:54;13.10;91.70
48162;DHT22;33950;48.154;16.316;2023-04-16T11:35:40;13.30;92.00
48162;DHT22;33950;48.154;16.316;2023-04-16T11:38:39;13.40;91.90
48162;DHT22;33950;48.154;16.316;2023-04-16T11:41:28;13.40;91.60
48162;DHT22;33950;48.154;16.316;2023-04-16T11:44:18;13.40;91.60
48162;DHT22;33950;48.154;16.316;2023-04-16T11:47:05;13.20;91.40
48162;DHT22;33950;48.154;16.316;2023-04-16T11:49:53;13.20;91.30
48162;DHT22;33950;48.154;16.316;2023-04-16T11:52:39;13.00;90.90
48162;DHT22;33950;48.154;16.316;2023-04-16T11:55:27;12.80;91.20
48162;DHT22;33950;48.154;16.316;2023-04-16T11:58:13;12.80;91.40
48162;DHT22;33950;48.154;16.316;2023-04-16T12:01:02;12.90;91.80
48162;DHT22;33950;48.154;16.316;2023-04-16T12:03:49;12.90;91.40
48162;DHT22;33950;48.154;16.316;2023-04-16T12:07:04;13.40;91.30
48162;DHT22;33950;48.154;16.316;2023-04-16T12:10:04;13.70;90.30
48162;DHT22;33950;48.154;16.316;2023-04-16T12:12:53;13.40;90.50
48162;DHT22;33950;48.154;16.316;2023-04-16T12:15:46;13.30;91.40
48162;DHT22;33950;48.154;16.316;2023-04-16T12:18:32;13.10;91.90
48162;DHT22;33950;48.154;16.316;2023-04-16T12:21:18;12.90;92.20
48162;DHT22;33950;48.154;16.316;2023-04-16T12:24:05;12.90;92.50
48162;DHT22;33950;48.154;16.316;2023-04-16T12:26:53;12.90;91.90
48162;DHT22;33950;48.154;16.316;2023-04-16T12:29:43;12.80;92.30
48162;DHT22;33950;48.154;16.316;2023-04-16T12:32:29;12.70;91.90
48162;DHT22;33950;48.154;16.316;2023-04-16T12:35:28;12.70;92.20
48162;DHT22;33950;48.154;16.316;2023-04-16T12:38:15;12.80;91.70
48162;DHT22;33950;48.154;16.316;2023-04-16T12:41:01;13.00;91.80
48162;DHT22;33950;48.154;16.316;2023-04-16T12:43:49;13.20;91.10
48162;DHT22;33950;48.154;16.316;2023-04-16T12:46:37;13.30;90.70
48162;DHT22;33950;48.154;16.316;2023-04-16T12:49:23;13.40;90.40
48162;DHT22;33950;48.154;16.316;2023-04-16T12:52:09;13.60;90.60
48162;DHT22;33950;48.154;16.316;2023-04-16T12:54:55;13.60;90.60
48162;DHT22;33950;48.154;16.316;2023-04-16T12:57:42;13.80;90.70
48162;DHT22;33950;48.154;16.316;2023-04-16T13:00:28;14.00;90.90
48162;DHT22;33950;48.154;16.316;2023-04-16T13:03:15;14.10;90.10
48162;DHT22;33950;48.154;16.316;2023-04-16T13:06:01;13.90;90.50
48162;DHT22;33950;48.154;16.316;2023-04-16T13:08:48;13.90;90.70
48162;DHT22;33950;48.154;16.316;2023-04-16T13:11:34;13.80;90.50
48162;DHT22;33950;48.154;16.316;2023-04-16T13:14:20;13.90;90.50
48162;DHT22;33950;48.154;16.316;2023-04-16T13:17:06;14.00;90.70
48162;DHT22;33950;48.154;16.316;2023-04-16T13:19:54;14.00;90.70
48162;DHT22;33950;48.154;16.316;2023-04-16T13:22:40;14.10;90.50
48162;DHT22;33950;48.154;16.316;2023-04-16T13:25:26;14.00;89.90
48162;DHT22;33950;48.154;16.316;2023-04-16T13:28:12;13.70;90.30
48162;DHT22;33950;48.154;16.316;2023-04-16T13:30:58;13.50;90.70
48162;DHT22;33950;48.154;16.316;2023-04-16T13:33:44;13.40;90.60
48162;DHT22;33950;48.154;16.316;2023-04-16T13:36:32;13.30;90.60
48162;DHT22;33950;48.154;16.316;2023-04-16T13:39:18;13.20;90.50
48162;DHT22;33950;48.154;16.316;2023-04-16T13:42:05;13.20;90.80
48162;DHT22;33950;48.154;16.316;2023-04-16T13:44:51;13.20;91.00
48162;DHT22;33950;48.154;16.316;2023-04-16T13:47:40;13.20;91.60
48162;DHT22;33950;48.154;16.316;2023-04-16T13:50:28;13.30;92.00
48162;DHT22;33950;48.154;16.316;2023-04-16T13:53:16;13.10;92.10
48162;DHT22;33950;48.154;16.316;2023-04-16T13:56:02;12.80;92.00
48162;DHT22;33950;48.154;16.316;2023-04-16T13:58:49;12.60;92.30
48162;DHT22;33950;48.154;16.316;2023-04-16T14:01:35;12.70;92.50
48162;DHT22;33950;48.154;16.316;2023-04-16T14:04:21;12.70;92.40
48162;DHT22;33950;48.154;16.316;2023-04-16T14:07:07;12.80;91.90
48162;DHT22;33950;48.154;16.316;2023-04-16T14:09:55;12.90;92.40
48162;DHT22;33950;48.154;16.316;2023-04-16T14:12:42;13.10;92.50
48162;DHT22;33950;48.154;16.316;2023-04-16T14:15:28;13.20;92.10
48162;DHT22;33950;48.154;16.316;2023-04-16T14:18:14;13.20;91.70
48162;DHT22;33950;48.154;16.316;2023-04-16T14:21:01;13.20;92.00
48162;DHT22;33950;48.154;16.316;2023-04-16T14:23:47;13.10;91.50
48162;DHT22;33950;48.154;16.316;2023-04-16T14:26:34;13.00;91.60
48162;DHT22;33950;48.154;16.316;2023-04-16T14:29:20;12.80;91.60
48162;DHT22;33950;48.154;16.316;2023-04-16T14:32:07;12.80;91.70
48162;DHT22;33950;48.154;16.316;2023-04-16T14:34:53;12.90;91.90
48162;DHT22;33950;48.154;16.316;2023-04-16T14:37:39;13.00;91.60
48162;DHT22;33950;48.154;16.316;2023-04-16T14:40:25;13.20;91.10
48162;DHT22;33950;48.154;16.316;2023-04-16T14:43:13;13.50;90.90
48162;DHT22;33950;48.154;16.316;2023-04-16T14:45:59;13.60;90.80
48162;DHT22;33950;48.154;16.316;2023-04-16T14:48:45;13.50;90.70
48162;DHT22;33950;48.154;16.316;2023-04-16T14:51:32;13.50;90.60
48162;DHT22;33950;48.154;16.316;2023-04-16T14:54:18;13.40;91.00
48162;DHT22;33950;48.154;16.316;2023-04-16T14:57:05;13.40;91.20
48162;DHT22;33950;48.154;16.316;2023-04-16T14:59:52;13.40;91.40
48162;DHT22;33950;48.154;16.316;2023-04-16T15:02:38;13.20;92.10
48162;DHT22;33950;48.154;16.316;2023-04-16T15:05:25;13.00;92.70
48162;DHT22;33950;48.154;16.316;2023-04-16T15:08:11;12.90;92.50
48162;DHT22;33950;48.154;16.316;2023-04-16T15:10:58;12.80;92.40
48162;DHT22;33950;48.154;16.316;2023-04-16T15:13:44;12.80;92.60
48162;DHT22;33950;48.154;16.316;2023-04-16T15:16:31;12.80;92.70
48162;DHT22;33950;48.154;16.316;2023-04-16T15:19:17;12.70;93.00
48162;DHT22;33950;48.154;16.316;2023-04-16T15:22:03;12.60;93.20
48162;DHT22;33950;48.154;16.316;2023-04-16T15:24:49;12.60;93.00
48162;DHT22;33950;48.154;16.316;2023-04-16T15:33:10;12.30;94.40
48162;DHT22;33950;48.154;16.316;2023-04-16T15:35:57;12.30;94.30
48162;DHT22;33950;48.154;16.316;2023-04-16T15:41:30;12.10;98.50
48162;DHT22;33950;48.154;16.316;2023-04-16T15:44:16;12.00;95.70
48162;DHT22;33950;48.154;16.316;2023-04-16T15:47:02;12.10;97.60
48162;DHT22;33950;48.154;16.316;2023-04-16T15:49:52;12.20;95.70
48162;DHT22;33950;48.154;16.316;2023-04-16T15:52:38;12.10;95.70
48162;DHT22;33950;48.154;16.316;2023-04-16T15:55:25;12.00;95.70
48162;DHT22;33950;48.154;16.316;2023-04-16T15:58:11;11.90;95.60
48162;DHT22;33950;48.154;16.316;2023-04-16T16:00:57;11.90;96.10
48162;DHT22;33950;48.154;16.316;2023-04-16T16:03:44;11.80;96.30
48162;DHT22;33950;48.154;16.316;2023-04-16T16:06:31;11.70;96.80
48162;DHT22;33950;48.154;16.316;2023-04-16T16:09:17;11.70;97.10
48162;DHT22;33950;48.154;16.316;2023-04-16T16:12:10;11.90;97.20
48162;DHT22;33950;48.154;16.316;2023-04-16T16:14:56;11.80;97.30
48162;DHT22;33950;48.154;16.316;2023-04-16T16:17:43;11.70;97.50
48162;DHT22;33950;48.154;16.316;2023-04-16T16:20:29;11.60;97.50
48162;DHT22;33950;48.154;16.316;2023-04-16T16:23:16;11.50;98.10
48162;DHT22;33950;48.154;16.316;2023-04-16T16:26:02;11.50;98.10
48162;DHT22;33950;48.154;16.316;2023-04-16T16:28:50;11.00;97.70
48162;DHT22;33950;48.154;16.316;2023-04-16T16:31:37;11.40;98.00
48162;DHT22;33950;48.154;16.316;2023-04-16T16:34:23;11.70;98.10
48162;DHT22;33950;48.154;16.316;2023-04-16T16:37:09;11.80;98.00
48162;DHT22;33950;48.154;16.316;2023-04-16T16:39:56;11.70;98.20
48162;DHT22;33950;48.154;16.316;2023-04-16T16:42:42;11.60;97.90
48162;DHT22;33950;48.154;16.316;2023-04-16T16:45:29;11.60;98.00
48162;DHT22;33950;48.154;16.316;2023-04-16T16:48:15;11.70;98.30
48162;DHT22;33950;48.154;16.316;2023-04-16T16:51:02;11.60;98.10
48162;DHT22;33950;48.154;16.316;2023-04-16T16:53:48;11.50;98.40
48162;DHT22;33950;48.154;16.316;2023-04-16T16:56:35;11.60;98.60
48162;DHT22;33950;48.154;16.316;2023-04-16T16:59:21;11.40;98.80
48162;DHT22;33950;48.154;16.316;2023-04-16T17:02:10;11.40;98.90
48162;DHT22;33950;48.154;16.316;2023-04-16T17:04:56;11.50;99.10
48162;DHT22;33950;48.154;16.316;2023-04-16T17:07:43;11.50;99.10
48162;DHT22;33950;48.154;16.316;2023-04-16T17:10:29;11.40;99.30
48162;DHT22;33950;48.154;16.316;2023-04-16T17:13:17;11.40;99.40
48162;DHT22;33950;48.154;16.316;2023-04-16T17:16:05;11.40;99.70
48162;DHT22;33950;48.154;16.316;2023-04-16T17:24:24;11.40;99.90
48162;DHT22;33950;48.154;16.316;2023-04-16T17:27:10;11.60;99.90
48162;DHT22;33950;48.154;16.316;2023-04-16T17:29:58;12.50;99.90
48162;DHT22;33950;48.154;16.316;2023-04-16T17:32:46;11.30;99.90
48162;DHT22;33950;48.154;16.316;2023-04-16T17:35:32;11.60;99.90
48162;DHT22;33950;48.154;16.316;2023-04-16T17:38:18;11.30;99.90